Time;durP1;ratioP1;P1;durP2;ratioP2;P2;SDS_P1;SDS_P2;PMS_P1;PMS_P2;Temp;Humidity;BMP_temperature;BMP_pressure;BME280_temperature;BME280_humidity;BME280_pressure;Samples;Min_cycle;Max_cycle;Signal;HPM_P1;HPM_P2
2023/04/22 00:00:37;;;;;;;2.28;1.67;;;;;;;;;;5070562;28;20040;-74
2023/04/22 00:03:03;;;;;;;;;;;;;;;;;;5054905;28;20044;-74
2023/04/22 00:05:30;;;;;;;2.42;2.00;;;;;;;;;;5070385;28;19920;-75
2023/04/22 00:07:56;;;;;;;1.80;1.60;;;;;;;;;;5104581;28;20045;-74
2023/04/22 00:10:22;;;;;;;2.13;1.40;;;;;;;;;;5070770;28;20058;-73
2023/04/22 00:12:48;;;;;;;1.70;1.42;;;;;;;;;;5070438;28;20054;-73
2023/04/22 00:15:14;;;;;;;1.10;1.00;;;;;;;;;;5071603;28;20067;-73
2023/04/22 00:17:41;;;;;;;1.05;0.93;;;;;;;;;;5070387;28;20127;-73
2023/04/22 00:20:09;;;;;;;2.47;0.90;;;;;;;;;;5087497;28;20056;-73
2023/04/22 00:22:35;;;;;;;1.25;1.02;;;;;;;;;;5103994;28;20079;-73
2023/04/22 00:25:01;;;;;;;1.00;0.90;;;;;;;;;;5054428;28;20059;-73
2023/04/22 00:27:27;;;;;;;1.17;1.00;;;;;;;;;;5048516;28;20043;-73
2023/04/22 00:29:53;;;;;;;1.75;1.17;;;;;;;;;;5064246;28;20046;-73
2023/04/22 00:32:21;;;;;;;1.55;1.20;;;;;;;;;;5051252;28;20070;-73
2023/04/22 00:34:48;;;;;;;1.20;0.90;;;;;;;;;;5052814;28;20123;-73
2023/04/22 00:37:14;;;;;;;0.93;0.80;;;;;;;;;;5103763;28;20454;-74
2023/04/22 00:39:40;;;;;;;;;;;;;;;;;;5103562;28;20056;-73
2023/04/22 00:42:06;;;;;;;0.77;0.77;;;;;;;;;;5052789;28;19923;-73
2023/04/22 00:44:33;;;;;;;1.63;1.02;;;;;;;;;;5069840;28;20058;-72
2023/04/22 00:46:59;;;;;;;;;;;;;;;;;;5103783;28;20482;-74
2023/04/22 00:49:26;;;;;;;1.30;0.90;;;;;;;;;;5069888;28;20425;-73
2023/04/22 00:51:53;;;;;;;0.80;0.75;;;;;;;;;;5069442;28;20125;-74
2023/04/22 00:54:19;;;;;;;1.17;0.90;;;;;;;;;;5070058;28;20380;-73
2023/04/22 00:56:45;;;;;;;;;;;;;;;;;;5056842;28;20589;-73
2023/04/22 00:59:11;;;;;;;0.85;0.63;;;;;;;;;;5051733;28;19921;-73
2023/04/22 01:01:37;;;;;;;0.70;0.70;;;;;;;;;;5068740;28;20028;-73
2023/04/22 01:04:03;;;;;;;0.55;0.55;;;;;;;;;;5068827;28;20048;-73
2023/04/22 01:06:32;;;;;;;0.60;0.60;;;;;;;;;;5067809;28;20098;-74
2023/04/22 01:08:59;;;;;;;0.68;0.50;;;;;;;;;;5100522;28;20480;-73
2023/04/22 01:11:25;;;;;;;;;;;;;;;;;;5067541;28;20040;-73
2023/04/22 01:13:51;;;;;;;1.20;0.60;;;;;;;;;;5067553;28;20011;-72
2023/04/22 01:16:17;;;;;;;0.73;0.60;;;;;;;;;;5068311;28;20123;-74
2023/04/22 01:18:43;;;;;;;0.40;0.40;;;;;;;;;;5068722;28;20191;-72
2023/04/22 01:21:10;;;;;;;0.93;0.70;;;;;;;;;;5067804;28;20040;-73
2023/04/22 01:23:37;;;;;;;0.77;0.68;;;;;;;;;;5068221;28;20097;-73
2023/04/22 01:26:03;;;;;;;1.02;0.88;;;;;;;;;;5066224;28;20044;-73
2023/04/22 01:28:30;;;;;;;1.02;0.90;;;;;;;;;;5051274;28;20139;-74
2023/04/22 01:30:56;;;;;;;2.35;1.00;;;;;;;;;;5051678;28;20542;-73
2023/04/22 01:33:22;;;;;;;;;;;;;;;;;;5050686;28;20040;-73
2023/04/22 01:35:48;;;;;;;2.42;2.10;;;;;;;;;;5067898;28;19920;-73
2023/04/22 01:38:14;;;;;;;2.42;2.15;;;;;;;;;;5068352;28;20044;-73
2023/04/22 01:40:40;;;;;;;2.28;1.80;;;;;;;;;;5050912;28;20051;-72
2023/04/22 01:43:06;;;;;;;1.70;1.50;;;;;;;;;;5066774;28;20058;-73
2023/04/22 01:45:33;;;;;;;1.60;1.30;;;;;;;;;;5040353;28;20549;-73
2023/04/22 01:47:59;;;;;;;1.13;1.02;;;;;;;;;;5067137;28;20123;-73
2023/04/22 01:50:25;;;;;;;1.02;0.90;;;;;;;;;;5051119;28;20084;-72
2023/04/22 01:52:51;;;;;;;0.73;0.70;;;;;;;;;;5073891;28;20040;-73
2023/04/22 01:55:17;;;;;;;1.40;0.90;;;;;;;;;;5074119;28;20052;-72
2023/04/22 01:57:43;;;;;;;0.98;0.80;;;;;;;;;;5075266;28;20052;-72
2023/04/22 02:00:10;;;;;;;0.82;0.70;;;;;;;;;;5107682;28;20041;-73
2023/04/22 02:02:36;;;;;;;1.48;0.85;;;;;;;;;;5072358;28;20036;-73
2023/04/22 02:05:02;;;;;;;1.15;0.90;;;;;;;;;;5074378;28;20055;-73
2023/04/22 02:07:28;;;;;;;1.55;1.00;;;;;;;;;;5075185;28;20105;-72
2023/04/22 02:09:54;;;;;;;1.70;1.17;;;;;;;;;;5075355;28;20060;-72
2023/04/22 02:12:20;;;;;;;1.15;1.05;;;;;;;;;;5075559;28;20053;-72
2023/04/22 02:14:46;;;;;;;1.13;0.90;;;;;;;;;;5074864;28;20052;-72
2023/04/22 02:17:16;;;;;;;1.05;0.90;;;;;;;;;;5092189;28;20048;-73
2023/04/22 02:19:43;;;;;;;0.98;0.80;;;;;;;;;;5109104;27;20040;-73
2023/04/22 02:22:08;;;;;;;;;;;;;;;;;;5075873;28;20033;-72
2023/04/22 02:24:35;;;;;;;0.93;0.73;;;;;;;;;;5058154;28;19923;-74
2023/04/22 02:27:01;;;;;;;1.45;1.30;;;;;;;;;;5109328;28;20044;-72
2023/04/22 02:29:27;;;;;;;1.10;0.90;;;;;;;;;;5091787;28;20480;-74
2023/04/22 02:31:53;;;;;;;1.10;1.00;;;;;;;;;;5075391;28;20083;-74
2023/04/22 02:34:19;;;;;;;1.38;0.85;;;;;;;;;;5075081;28;20055;-73
2023/04/22 02:36:45;;;;;;;0.98;0.70;;;;;;;;;;5109069;28;20125;-72
2023/04/22 02:39:11;;;;;;;0.65;0.50;;;;;;;;;;5058909;28;20443;-73
2023/04/22 02:41:38;;;;;;;0.75;0.60;;;;;;;;;;5075425;28;20115;-73
2023/04/22 02:44:04;;;;;;;0.85;0.80;;;;;;;;;;5058532;28;20055;-73
2023/04/22 02:46:30;;;;;;;1.38;1.00;;;;;;;;;;5109113;28;20055;-72
2023/04/22 02:48:56;;;;;;;1.80;1.30;;;;;;;;;;5075122;28;20124;-73
2023/04/22 02:51:22;;;;;;;2.10;1.80;;;;;;;;;;5075362;28;20076;-73
2023/04/22 02:53:48;;;;;;;3.67;2.10;;;;;;;;;;5075168;28;20036;-73
2023/04/22 02:56:14;;;;;;;4.03;3.00;;;;;;;;;;5108810;28;20136;-73
2023/04/22 02:58:40;;;;;;;3.80;3.03;;;;;;;;;;5074978;28;20048;-73
2023/04/22 03:01:07;;;;;;;4.13;3.22;;;;;;;;;;5075361;28;20080;-73
2023/04/22 03:03:33;;;;;;;3.45;3.13;;;;;;;;;;5071765;28;20048;-74
2023/04/22 03:05:59;;;;;;;3.40;3.10;;;;;;;;;;5105986;28;20051;-74
2023/04/22 03:08:25;;;;;;;;;;;;;;;;;;5055660;28;20104;-73
2023/04/22 03:10:51;;;;;;;4.57;3.15;;;;;;;;;;5069210;28;19966;-73
2023/04/22 03:13:17;;;;;;;4.53;3.75;;;;;;;;;;5071660;28;20110;-73
2023/04/22 03:15:43;;;;;;;3.78;3.08;;;;;;;;;;5105249;28;20050;-73
2023/04/22 03:18:09;;;;;;;4.57;3.70;;;;;;;;;;5055280;28;20087;-73
2023/04/22 03:20:35;;;;;;;4.68;3.70;;;;;;;;;;5070419;28;20052;-73
2023/04/22 03:23:02;;;;;;;4.45;3.80;;;;;;;;;;5068811;28;20118;-73
2023/04/22 03:25:28;;;;;;;4.97;3.55;;;;;;;;;;5069045;28;20106;-73
2023/04/22 03:27:54;;;;;;;4.07;3.17;;;;;;;;;;5070203;28;20068;-68
2023/04/22 03:30:20;;;;;;;4.00;3.60;;;;;;;;;;5070416;28;20046;-68
2023/04/22 03:32:46;;;;;;;3.47;2.95;;;;;;;;;;5053323;28;20083;-69
2023/04/22 03:35:13;;;;;;;3.67;3.05;;;;;;;;;;5071043;28;20128;-68
2023/04/22 03:37:39;;;;;;;;;;;;;;;;;;5071765;28;20039;-69
2023/04/22 03:40:06;;;;;;;2.50;2.22;;;;;;;;;;5070991;28;19916;-69
2023/04/22 03:42:32;;;;;;;2.67;2.00;;;;;;;;;;5071122;28;20055;-68
2023/04/22 03:44:58;;;;;;;2.30;1.88;;;;;;;;;;5053272;28;20037;-68
2023/04/22 03:47:24;;;;;;;2.00;1.65;;;;;;;;;;5103414;28;20047;-69
2023/04/22 03:49:50;;;;;;;2.13;1.83;;;;;;;;;;5070769;28;20083;-68
2023/04/22 03:52:16;;;;;;;2.05;1.73;;;;;;;;;;5069372;28;20564;-68
2023/04/22 03:54:42;;;;;;;2.47;1.80;;;;;;;;;;5069461;28;20063;-68
2023/04/22 03:57:08;;;;;;;3.08;1.90;;;;;;;;;;5069029;28;20495;-68
2023/04/22 03:59:34;;;;;;;2.45;2.08;;;;;;;;;;5069593;28;20568;-68
2023/04/22 04:02:01;;;;;;;2.90;2.50;;;;;;;;;;5069704;28;20032;-68
2023/04/22 04:04:28;;;;;;;4.22;3.30;;;;;;;;;;5103172;28;20044;-68
2023/04/22 04:06:54;;;;;;;4.95;3.88;;;;;;;;;;5069303;28;20040;-68
2023/04/22 04:09:20;;;;;;;3.38;2.97;;;;;;;;;;5086165;28;20041;-68
2023/04/22 04:11:46;;;;;;;3.08;2.35;;;;;;;;;;5068143;28;20044;-68
2023/04/22 04:14:13;;;;;;;2.10;1.88;;;;;;;;;;5101763;28;20052;-68
2023/04/22 04:16:39;;;;;;;1.92;1.67;;;;;;;;;;5101924;28;20041;-68
2023/04/22 04:19:05;;;;;;;2.40;2.15;;;;;;;;;;5069362;28;20365;-71
2023/04/22 04:21:32;;;;;;;2.67;2.42;;;;;;;;;;5103057;28;20048;-72
2023/04/22 04:23:59;;;;;;;4.88;3.80;;;;;;;;;;5085736;28;20036;-72
2023/04/22 04:26:26;;;;;;;5.07;4.18;;;;;;;;;;5069038;28;20040;-73
2023/04/22 04:28:52;;;;;;;5.03;3.72;;;;;;;;;;5052111;28;20047;-73
2023/04/22 04:31:18;;;;;;;;;;;;;;;;;;5070006;28;20040;-73
2023/04/22 04:33:46;;;;;;;4.90;3.40;;;;;;;;;;5068009;28;19974;-72
2023/04/22 04:36:12;;;;;;;4.38;3.60;;;;;;;;;;5051911;28;20076;-72
2023/04/22 04:38:38;;;;;;;4.93;4.40;;;;;;;;;;5068814;28;20095;-72
2023/04/22 04:41:07;;;;;;;5.20;4.40;;;;;;;;;;5068465;28;20089;-72
2023/04/22 04:43:34;;;;;;;5.38;4.40;;;;;;;;;;5102452;28;20151;-73
2023/04/22 04:46:00;;;;;;;4.95;4.40;;;;;;;;;;5102468;28;20040;-73
2023/04/22 04:48:26;;;;;;;4.13;3.70;;;;;;;;;;5103470;28;20068;-73
2023/04/22 04:50:52;;;;;;;3.28;2.97;;;;;;;;;;5101211;28;20401;-73
2023/04/22 04:53:18;;;;;;;;;;;;;;;;;;5104206;28;20563;-73
2023/04/22 04:55:44;;;;;;;5.35;4.28;;;;;;;;;;5052134;28;20003;-73
2023/04/22 04:58:10;;;;;;;6.07;4.00;;;;;;;;;;5070765;28;20052;-73
2023/04/22 05:00:37;;;;;;;4.18;3.50;;;;;;;;;;5068198;28;20059;-73
2023/04/22 05:03:03;;;;;;;4.68;4.18;;;;;;;;;;5102101;28;20437;-73
2023/04/22 05:05:29;;;;;;;5.47;4.97;;;;;;;;;;5102112;28;20480;-73
2023/04/22 05:07:55;;;;;;;5.45;4.57;;;;;;;;;;5068471;28;20041;-72
2023/04/22 05:10:21;;;;;;;5.03;3.67;;;;;;;;;;5068227;28;20036;-72
2023/04/22 05:12:47;;;;;;;4.85;4.10;;;;;;;;;;5102098;28;20551;-72
2023/04/22 05:15:14;;;;;;;5.03;4.47;;;;;;;;;;5068434;28;20507;-72
2023/04/22 05:17:40;;;;;;;6.65;5.05;;;;;;;;;;5100405;28;20044;-73
2023/04/22 05:20:06;;;;;;;5.88;5.20;;;;;;;;;;5051877;28;20040;-73
2023/04/22 05:22:32;;;;;;;;;;;;;;;;;;5102878;28;20391;-73
2023/04/22 05:24:58;;;;;;;6.55;5.25;;;;;;;;;;5068042;28;19917;-73
2023/04/22 05:27:24;;;;;;;5.80;5.20;;;;;;;;;;5101070;28;20048;-72
2023/04/22 05:29:51;;;;;;;7.30;5.68;;;;;;;;;;5101628;28;20070;-73
2023/04/22 05:32:17;;;;;;;5.88;5.28;;;;;;;;;;5067764;28;20037;-72
2023/04/22 05:34:43;;;;;;;6.05;5.38;;;;;;;;;;5067222;28;20087;-72
2023/04/22 05:37:09;;;;;;;6.20;4.68;;;;;;;;;;5101455;28;20618;-69
2023/04/22 05:39:35;;;;;;;5.07;4.57;;;;;;;;;;5101972;28;20075;-69
2023/04/22 05:42:02;;;;;;;6.47;5.32;;;;;;;;;;5066682;28;20071;-68
2023/04/22 05:44:28;;;;;;;;;;;;;;;;;;5098978;28;20094;-69
2023/04/22 05:46:54;;;;;;;5.80;5.20;;;;;;;;;;5065813;28;20430;-69
2023/04/22 05:49:20;;;;;;;5.35;4.47;;;;;;;;;;5084042;28;20522;-69
2023/04/22 05:51:46;;;;;;;4.60;4.10;;;;;;;;;;5050885;28;20040;-73
2023/04/22 05:54:12;;;;;;;3.90;3.50;;;;;;;;;;5048829;28;20041;-73
2023/04/22 05:56:38;;;;;;;3.60;2.75;;;;;;;;;;5099449;28;20093;-74
2023/04/22 05:59:04;;;;;;;5.57;4.25;;;;;;;;;;5045855;28;20185;-74
2023/04/22 06:01:30;;;;;;;5.10;4.20;;;;;;;;;;5048878;28;20048;-74
2023/04/22 06:03:56;;;;;;;5.85;4.65;;;;;;;;;;5067005;28;20040;-73
2023/04/22 06:06:23;;;;;;;4.97;3.88;;;;;;;;;;5083155;28;20045;-73
2023/04/22 06:08:49;;;;;;;4.00;3.08;;;;;;;;;;5066163;28;20043;-73
2023/04/22 06:11:15;;;;;;;4.63;3.63;;;;;;;;;;5047060;28;20044;-73
2023/04/22 06:13:41;;;;;;;3.92;3.53;;;;;;;;;;5064723;28;20044;-73
2023/04/22 06:16:08;;;;;;;4.25;3.53;;;;;;;;;;5050160;28;20110;-74
2023/04/22 06:18:35;;;;;;;3.70;2.80;;;;;;;;;;5066313;28;20044;-74
2023/04/22 06:21:01;;;;;;;4.05;3.10;;;;;;;;;;5066408;28;20040;-73
2023/04/22 06:23:27;;;;;;;5.03;3.67;;;;;;;;;;5065476;28;20488;-73
2023/04/22 06:25:53;;;;;;;5.32;4.45;;;;;;;;;;5099239;28;20032;-73
2023/04/22 06:28:19;;;;;;;6.38;4.55;;;;;;;;;;5068325;28;20448;-73
2023/04/22 06:30:46;;;;;;;4.13;3.60;;;;;;;;;;5065705;28;20067;-73
2023/04/22 06:33:12;;;;;;;3.85;3.45;;;;;;;;;;5100331;28;20459;-74
2023/04/22 06:35:38;;;;;;;;;;;;;;;;;;5100692;28;20040;-73
2023/04/22 06:38:04;;;;;;;5.70;4.82;;;;;;;;;;5048641;28;19924;-74
2023/04/22 06:40:30;;;;;;;5.47;4.85;;;;;;;;;;5086301;28;20040;-73
2023/04/22 06:42:56;;;;;;;4.57;4.13;;;;;;;;;;5054951;28;20046;-74
2023/04/22 06:45:22;;;;;;;3.92;3.25;;;;;;;;;;5069170;28;20127;-74
2023/04/22 06:47:48;;;;;;;2.80;2.60;;;;;;;;;;5070467;28;20045;-74
2023/04/22 06:50:14;;;;;;;3.22;2.92;;;;;;;;;;5067716;28;20131;-74
2023/04/22 06:52:40;;;;;;;3.20;2.90;;;;;;;;;;5051585;28;20205;-74
2023/04/22 06:55:07;;;;;;;3.58;3.15;;;;;;;;;;5067348;28;20129;-74
2023/04/22 06:57:33;;;;;;;3.28;2.97;;;;;;;;;;5050517;28;20059;-75
2023/04/22 06:59:59;;;;;;;4.82;3.67;;;;;;;;;;5102611;28;20541;-74
2023/04/22 07:02:25;;;;;;;4.45;4.05;;;;;;;;;;5053098;28;20068;-74
2023/04/22 07:04:51;;;;;;;4.05;3.65;;;;;;;;;;5070110;28;20047;-75
2023/04/22 07:07:18;;;;;;;5.90;4.05;;;;;;;;;;5069733;28;20496;-75
2023/04/22 07:09:44;;;;;;;5.25;4.40;;;;;;;;;;5052013;28;20068;-74
2023/04/22 07:12:10;;;;;;;3.90;3.38;;;;;;;;;;5068114;28;20038;-74
2023/04/22 07:14:36;;;;;;;4.50;4.10;;;;;;;;;;5069007;28;20040;-74
2023/04/22 07:17:02;;;;;;;;;;;;;;;;;;5101689;28;20131;-74
2023/04/22 07:19:29;;;;;;;3.58;3.28;;;;;;;;;;5069472;28;20003;-74
2023/04/22 07:21:55;;;;;;;3.90;3.45;;;;;;;;;;5102051;28;20123;-74
2023/04/22 07:24:22;;;;;;;3.65;3.15;;;;;;;;;;5054003;28;20041;-74
2023/04/22 07:26:48;;;;;;;4.03;3.10;;;;;;;;;;5052632;28;20044;-74
2023/04/22 07:29:14;;;;;;;3.03;2.70;;;;;;;;;;5086296;28;20165;-74
2023/04/22 07:31:40;;;;;;;3.22;2.92;;;;;;;;;;5053298;28;20043;-73
2023/04/22 07:34:08;;;;;;;3.30;3.00;;;;;;;;;;5100752;28;20135;-74
2023/04/22 07:36:34;;;;;;;4.20;3.80;;;;;;;;;;5102142;28;20086;-73
2023/04/22 07:39:00;;;;;;;;;;;;;;;;;;5071141;28;20094;-74
2023/04/22 07:41:26;;;;;;;4.07;3.08;;;;;;;;;;5067675;28;20382;-74
2023/04/22 07:43:52;;;;;;;5.03;4.20;;;;;;;;;;5066563;28;20365;-74
2023/04/22 07:46:18;;;;;;;3.22;2.90;;;;;;;;;;5067913;28;20044;-72
2023/04/22 07:48:44;;;;;;;3.40;3.10;;;;;;;;;;5070550;28;20036;-72
2023/04/22 07:51:10;;;;;;;3.80;3.38;;;;;;;;;;5067277;28;20032;-72
2023/04/22 07:53:36;;;;;;;3.15;2.60;;;;;;;;;;5086958;28;20072;-72
2023/04/22 07:56:03;;;;;;;3.22;2.92;;;;;;;;;;5104188;28;20060;-73
2023/04/22 07:58:29;;;;;;;3.60;2.92;;;;;;;;;;5087382;28;20041;-73
2023/04/22 08:00:56;;;;;;;3.80;3.33;;;;;;;;;;5069158;28;20055;-73
2023/04/22 08:03:23;;;;;;;5.93;4.13;;;;;;;;;;5052348;28;20052;-74
2023/04/22 08:05:49;;;;;;;;;;;;;;;;;;5067817;28;20106;-73
2023/04/22 08:08:15;;;;;;;4.05;3.60;;;;;;;;;;5068490;28;20352;-74
2023/04/22 08:10:41;;;;;;;;;;;;;;;;;;5071274;28;20040;-73
2023/04/22 08:13:07;;;;;;;5.22;4.03;;;;;;;;;;5067914;28;19978;-73
2023/04/22 08:15:33;;;;;;;6.93;5.40;;;;;;;;;;5068420;28;20337;-73
2023/04/22 08:17:59;;;;;;;4.47;4.07;;;;;;;;;;5067923;28;20441;-72
2023/04/22 08:20:25;;;;;;;6.25;4.20;;;;;;;;;;5068578;28;20123;-71
2023/04/22 08:22:56;;;;;;;3.90;3.47;;;;;;;;;;5068816;28;20097;-73
2023/04/22 08:25:22;;;;;;;3.30;2.90;;;;;;;;;;5100502;28;20048;-73
2023/04/22 08:27:50;;;;;;;4.32;3.53;;;;;;;;;;5069205;28;20467;-73
2023/04/22 08:30:16;;;;;;;4.40;4.00;;;;;;;;;;5101197;28;20554;-73
2023/04/22 08:32:42;;;;;;;3.30;2.97;;;;;;;;;;5068765;28;20310;-73
2023/04/22 08:35:08;;;;;;;4.30;3.80;;;;;;;;;;5069306;28;20032;-73
2023/04/22 08:37:34;;;;;;;;;;;;;;;;;;5100593;28;20525;-73
2023/04/22 08:40:00;;;;;;;4.43;4.03;;;;;;;;;;5085404;28;19924;-73
2023/04/22 08:42:26;;;;;;;;;;;;;;;;;;5066556;28;20068;-73
2023/04/22 08:44:53;;;;;;;4.63;4.22;;;;;;;;;;5069761;28;19982;-74
2023/04/22 08:47:20;;;;;;;5.05;4.50;;;;;;;;;;5068453;28;20039;-74
2023/04/22 08:49:46;;;;;;;5.82;5.05;;;;;;;;;;5098746;28;20047;-73
2023/04/22 08:52:14;;;;;;;6.38;4.95;;;;;;;;;;5063889;28;21603;-74
2023/04/22 08:54:43;;;;;;;4.43;3.65;;;;;;;;;;5097233;28;20106;-71
2023/04/22 08:57:09;;;;;;;5.07;4.57;;;;;;;;;;5047965;28;20062;-71
2023/04/22 08:59:37;;;;;;;5.05;4.60;;;;;;;;;;5066370;28;20119;-73
2023/04/22 09:02:04;;;;;;;4.80;4.30;;;;;;;;;;5097616;28;20452;-73
2023/04/22 09:04:30;;;;;;;5.75;4.90;;;;;;;;;;5102832;28;20499;-73
2023/04/22 09:06:56;;;;;;;5.93;4.32;;;;;;;;;;5102635;28;20044;-74
2023/04/22 09:09:23;;;;;;;;;;;;;;;;;;5069194;28;20051;-74
2023/04/22 09:11:49;;;;;;;5.53;4.32;;;;;;;;;;5068700;28;19955;-73
2023/04/22 09:14:16;;;;;;;4.28;3.88;;;;;;;;;;5102440;28;20048;-73
2023/04/22 09:16:46;;;;;;;3.88;3.47;;;;;;;;;;5068178;28;20080;-73
2023/04/22 09:19:13;;;;;;;5.18;4.03;;;;;;;;;;5066928;28;20131;-73
2023/04/22 09:21:40;;;;;;;3.80;3.50;;;;;;;;;;5068307;28;20119;-73
2023/04/22 09:24:10;;;;;;;5.20;4.70;;;;;;;;;;5069481;28;20119;-73
2023/04/22 09:26:40;;;;;;;4.13;3.72;;;;;;;;;;5049606;28;20039;-73
2023/04/22 09:29:08;;;;;;;3.15;2.85;;;;;;;;;;5102297;28;20115;-73
2023/04/22 09:31:36;;;;;;;4.75;4.28;;;;;;;;;;5102061;28;20135;-73
2023/04/22 09:34:03;;;;;;;4.25;3.85;;;;;;;;;;5068483;28;20503;-74
2023/04/22 09:36:36;;;;;;;3.58;3.28;;;;;;;;;;5034147;28;20041;-73
2023/04/22 09:39:03;;;;;;;4.68;3.90;;;;;;;;;;5102419;28;20552;-73
2023/04/22 09:41:31;;;;;;;4.65;4.20;;;;;;;;;;5068218;28;20040;-74
2023/04/22 09:43:57;;;;;;;4.38;3.75;;;;;;;;;;5067966;28;20043;-73
2023/04/22 09:46:24;;;;;;;5.13;4.53;;;;;;;;;;5068131;28;20551;-74
2023/04/22 09:48:51;;;;;;;6.80;4.63;;;;;;;;;;5101589;28;20045;-74
2023/04/22 09:51:17;;;;;;;3.65;3.25;;;;;;;;;;5068002;28;20051;-73
2023/04/22 09:53:44;;;;;;;3.20;2.65;;;;;;;;;;5051583;28;20053;-73
2023/04/22 09:56:10;;;;;;;3.80;3.45;;;;;;;;;;5102196;28;20040;-74
2023/04/22 09:58:40;;;;;;;2.60;2.40;;;;;;;;;;5085019;28;20060;-73
2023/04/22 10:01:07;;;;;;;3.03;2.72;;;;;;;;;;5068290;28;20141;-73
2023/04/22 10:03:33;;;;;;;3.15;2.40;;;;;;;;;;5067899;28;20055;-73
2023/04/22 10:05:59;;;;;;;3.40;3.00;;;;;;;;;;5101570;28;20070;-73
2023/04/22 10:08:25;;;;;;;3.35;3.03;;;;;;;;;;5101771;28;20123;-74
2023/04/22 10:10:52;;;;;;;5.30;3.70;;;;;;;;;;5101797;28;21151;-72
2023/04/22 10:13:18;;;;;;;3.83;3.33;;;;;;;;;;5070543;28;20044;-73
2023/04/22 10:15:55;;;;;;;3.72;3.20;;;;;;;;;;5071822;28;20040;-73
2023/04/22 10:18:22;;;;;;;3.13;2.83;;;;;;;;;;5105811;28;20044;-74
2023/04/22 10:20:48;;;;;;;3.88;3.40;;;;;;;;;;5105988;28;20036;-74
2023/04/22 10:23:19;;;;;;;3.28;2.97;;;;;;;;;;5071651;28;20051;-73
2023/04/22 10:25:50;;;;;;;4.63;3.63;;;;;;;;;;5088291;28;20048;-74
2023/04/22 10:28:17;;;;;;;4.38;3.10;;;;;;;;;;5071448;28;20044;-74
2023/04/22 10:30:43;;;;;;;3.25;2.30;;;;;;;;;;5071631;28;20040;-75
2023/04/22 10:33:22;;;;;;;3.42;2.80;;;;;;;;;;5103170;28;20492;-74
2023/04/22 10:36:08;;;;;;;4.60;2.80;;;;;;;;;;5071013;28;20043;-74
2023/04/22 10:38:34;;;;;;;3.85;3.40;;;;;;;;;;5071396;28;20752;-75
2023/04/22 10:41:02;;;;;;;3.30;2.90;;;;;;;;;;5072992;28;20377;-73
2023/04/22 10:44:00;;;;;;;4.28;3.28;;;;;;;;;;5071735;28;20063;-73
2023/04/22 10:46:33;;;;;;;3.00;2.70;;;;;;;;;;5036873;28;20407;-73
2023/04/22 10:49:08;;;;;;;3.47;3.17;;;;;;;;;;5068845;28;20033;-73
2023/04/22 10:52:02;;;;;;;3.05;2.75;;;;;;;;;;5104984;28;20133;-73
2023/04/22 10:54:30;;;;;;;3.78;3.13;;;;;;;;;;5068978;28;20119;-74
2023/04/22 10:57:00;;;;;;;3.15;2.75;;;;;;;;;;5054719;28;20048;-73
2023/04/22 10:59:27;;;;;;;2.80;2.42;;;;;;;;;;5069382;28;20056;-74
2023/04/22 11:01:53;;;;;;;3.70;2.83;;;;;;;;;;5088109;28;20126;-73
2023/04/22 11:04:21;;;;;;;3.33;2.80;;;;;;;;;;5104710;28;20407;-74
2023/04/22 11:07:08;;;;;;;3.28;2.97;;;;;;;;;;5071634;28;20053;-73
2023/04/22 11:09:38;;;;;;;4.55;3.33;;;;;;;;;;5077586;28;20132;-73
2023/04/22 11:12:23;;;;;;;4.22;2.85;;;;;;;;;;5086552;28;20053;-73
2023/04/22 11:14:49;;;;;;;2.83;2.47;;;;;;;;;;5068281;28;20102;-73
2023/04/22 11:17:15;;;;;;;3.92;3.53;;;;;;;;;;5069520;28;20454;-73
2023/04/22 11:19:41;;;;;;;3.65;2.92;;;;;;;;;;5030884;28;20059;-74
2023/04/22 11:22:08;;;;;;;3.53;2.55;;;;;;;;;;5068758;28;20052;-74
2023/04/22 11:24:34;;;;;;;4.07;2.72;;;;;;;;;;5069364;28;20032;-74
2023/04/22 11:27:00;;;;;;;3.90;2.67;;;;;;;;;;5087273;28;20101;-74
2023/04/22 11:29:26;;;;;;;4.13;2.95;;;;;;;;;;5103543;28;20178;-74
2023/04/22 11:31:52;;;;;;;4.28;2.95;;;;;;;;;;5069414;28;20036;-74
2023/04/22 11:34:18;;;;;;;3.03;2.28;;;;;;;;;;5051705;28;20044;-74
2023/04/22 11:36:45;;;;;;;4.35;2.60;;;;;;;;;;5068257;28;20041;-73
2023/04/22 11:39:13;;;;;;;3.05;2.40;;;;;;;;;;5067762;28;20044;-74
2023/04/22 11:41:43;;;;;;;3.65;2.90;;;;;;;;;;5070315;28;20055;-74
2023/04/22 11:44:09;;;;;;;2.70;2.50;;;;;;;;;;5071152;28;20552;-75
2023/04/22 11:46:38;;;;;;;4.25;2.50;;;;;;;;;;5067720;28;20036;-74
2023/04/22 11:49:33;;;;;;;3.30;3.00;;;;;;;;;;5050060;28;20506;-74
2023/04/22 11:51:59;;;;;;;4.57;3.30;;;;;;;;;;5048288;28;20055;-74
2023/04/22 11:54:30;;;;;;;3.10;2.80;;;;;;;;;;5067956;28;20040;-74
2023/04/22 11:56:56;;;;;;;3.40;2.83;;;;;;;;;;5068817;28;20076;-74
2023/04/22 11:59:27;;;;;;;3.55;2.67;;;;;;;;;;5100696;28;20052;-74
2023/04/22 12:01:53;;;;;;;2.63;2.08;;;;;;;;;;5052246;28;20052;-74
2023/04/22 12:04:22;;;;;;;2.13;1.90;;;;;;;;;;5067608;28;20135;-74
2023/04/22 12:06:49;;;;;;;2.33;1.63;;;;;;;;;;5069757;28;20041;-74
2023/04/22 12:09:15;;;;;;;3.08;2.63;;;;;;;;;;5070431;28;20562;-75
2023/04/22 12:11:41;;;;;;;3.03;2.72;;;;;;;;;;5068716;28;20516;-74
2023/04/22 12:14:08;;;;;;;2.60;2.10;;;;;;;;;;5067531;28;20151;-74
2023/04/22 12:16:41;;;;;;;2.72;1.85;;;;;;;;;;5100952;28;20036;-74
2023/04/22 12:19:07;;;;;;;2.60;1.70;;;;;;;;;;5098987;28;20488;-74
2023/04/22 12:21:33;;;;;;;2.35;1.73;;;;;;;;;;5050374;28;20052;-74
2023/04/22 12:24:03;;;;;;;2.15;1.65;;;;;;;;;;5069549;28;20074;-74
2023/04/22 12:26:30;;;;;;;1.67;1.58;;;;;;;;;;5070575;28;20048;-74
2023/04/22 12:28:57;;;;;;;2.83;1.85;;;;;;;;;;5067443;28;20066;-74
2023/04/22 12:31:23;;;;;;;2.30;2.10;;;;;;;;;;5068089;28;20051;-74
2023/04/22 12:33:49;;;;;;;1.80;1.50;;;;;;;;;;5067811;28;20040;-74
2023/04/22 12:36:19;;;;;;;2.88;2.10;;;;;;;;;;5103405;28;20048;-74
2023/04/22 12:38:45;;;;;;;2.95;2.10;;;;;;;;;;5097663;28;20048;-74
2023/04/22 12:41:11;;;;;;;2.30;1.80;;;;;;;;;;5099446;28;20392;-74
2023/04/22 12:43:38;;;;;;;2.30;1.70;;;;;;;;;;5101981;28;20072;-75
2023/04/22 12:46:08;;;;;;;2.53;1.90;;;;;;;;;;5067858;28;20079;-75
2023/04/22 12:48:36;;;;;;;3.28;2.30;;;;;;;;;;5051884;28;20111;-74
2023/04/22 12:51:02;;;;;;;2.95;2.00;;;;;;;;;;5103630;28;20044;-74
2023/04/22 12:53:28;;;;;;;2.90;1.90;;;;;;;;;;5103419;28;20391;-74
2023/04/22 12:55:54;;;;;;;3.42;2.47;;;;;;;;;;5068930;28;20056;-74
2023/04/22 12:58:21;;;;;;;2.85;2.28;;;;;;;;;;5069497;28;20060;-74
2023/04/22 13:00:47;;;;;;;3.70;2.70;;;;;;;;;;5103677;28;20123;-74
2023/04/22 13:03:13;;;;;;;2.60;2.30;;;;;;;;;;5069183;28;20039;-74
2023/04/22 13:05:39;;;;;;;3.28;2.42;;;;;;;;;;5103212;28;20446;-74
2023/04/22 13:08:05;;;;;;;3.70;2.30;;;;;;;;;;5102592;28;20047;-74
2023/04/22 13:10:31;;;;;;;3.03;2.33;;;;;;;;;;5069626;28;20055;-74
2023/04/22 13:12:57;;;;;;;2.22;1.70;;;;;;;;;;5069007;28;20048;-76
2023/04/22 13:15:25;;;;;;;2.38;1.80;;;;;;;;;;5065888;28;20047;-76
2023/04/22 13:17:51;;;;;;;2.50;2.05;;;;;;;;;;5102366;28;20052;-75
2023/04/22 13:20:17;;;;;;;2.90;2.20;;;;;;;;;;5068920;28;20044;-76
2023/04/22 13:22:46;;;;;;;2.80;2.22;;;;;;;;;;5067931;28;20038;-76
2023/04/22 13:25:12;;;;;;;2.60;2.13;;;;;;;;;;5047678;28;20044;-76
2023/04/22 13:27:38;;;;;;;2.72;2.40;;;;;;;;;;5095681;28;20040;-74
2023/04/22 13:30:06;;;;;;;3.70;3.20;;;;;;;;;;5067497;28;20123;-75
2023/04/22 13:32:32;;;;;;;2.92;2.63;;;;;;;;;;5098197;28;20150;-75
2023/04/22 13:34:58;;;;;;;4.78;3.33;;;;;;;;;;5099893;28;20044;-75
2023/04/22 13:37:24;;;;;;;3.30;2.65;;;;;;;;;;5066011;28;20047;-75
2023/04/22 13:39:51;;;;;;;2.90;2.60;;;;;;;;;;5052727;28;20044;-75
2023/04/22 13:42:17;;;;;;;4.20;3.10;;;;;;;;;;5066943;28;20064;-74
2023/04/22 13:44:43;;;;;;;3.53;3.03;;;;;;;;;;5068300;28;20123;-75
2023/04/22 13:47:09;;;;;;;3.47;2.80;;;;;;;;;;5068447;28;20028;-75
2023/04/22 13:49:35;;;;;;;5.05;3.10;;;;;;;;;;5066229;28;20135;-75
2023/04/22 13:52:01;;;;;;;3.80;3.20;;;;;;;;;;5097231;28;20075;-75
2023/04/22 13:54:27;;;;;;;4.20;3.60;;;;;;;;;;5064320;28;20082;-71
2023/04/22 13:56:54;;;;;;;4.60;3.78;;;;;;;;;;5065755;28;20053;-70
2023/04/22 13:59:20;;;;;;;4.50;2.88;;;;;;;;;;5065663;28;20058;-71
2023/04/22 14:01:46;;;;;;;3.78;3.17;;;;;;;;;;5064848;28;20047;-69
2023/04/22 14:04:12;;;;;;;3.88;3.40;;;;;;;;;;5099987;28;20040;-70
2023/04/22 14:06:38;;;;;;;4.55;3.40;;;;;;;;;;5063721;28;20048;-70
2023/04/22 14:09:04;;;;;;;2.88;2.30;;;;;;;;;;5065044;28;20032;-67
2023/04/22 14:11:31;;;;;;;4.40;3.53;;;;;;;;;;5067270;28;20054;-68
2023/04/22 14:13:57;;;;;;;2.90;2.60;;;;;;;;;;5065226;28;20052;-68
2023/04/22 14:16:23;;;;;;;3.70;2.95;;;;;;;;;;5068213;28;20067;-68
2023/04/22 14:18:49;;;;;;;3.53;2.90;;;;;;;;;;5064235;28;20427;-69
2023/04/22 14:21:15;;;;;;;3.78;3.33;;;;;;;;;;5066820;28;20048;-68
2023/04/22 14:23:42;;;;;;;3.85;2.75;;;;;;;;;;5046541;28;20098;-69
2023/04/22 14:26:09;;;;;;;3.22;2.70;;;;;;;;;;5061904;28;20078;-69
2023/04/22 14:28:35;;;;;;;3.35;2.97;;;;;;;;;;5068124;28;20063;-70
2023/04/22 14:31:01;;;;;;;4.88;3.78;;;;;;;;;;5101021;28;20040;-70
2023/04/22 14:33:28;;;;;;;5.50;4.53;;;;;;;;;;5100233;28;20098;-70
2023/04/22 14:35:54;;;;;;;3.90;3.50;;;;;;;;;;5083962;28;20088;-71
2023/04/22 14:38:20;;;;;;;;;;;;;;;;;;5051759;28;20052;-71
2023/04/22 14:40:46;;;;;;;6.40;5.38;;;;;;;;;;5050984;28;20359;-71
2023/04/22 14:43:12;;;;;;;4.47;4.03;;;;;;;;;;5067211;28;20036;-70
2023/04/22 14:45:38;;;;;;;6.55;5.78;;;;;;;;;;5066977;28;20044;-70
2023/04/22 14:48:04;;;;;;;;;;;;;;;;;;5050839;28;20070;-70